Stuart, Oklahoma
Current Conditions -  °F | °C
As of 2:53 AM on Saturday 25 Oct 2014 (Local Time) from KMLC Reporting Station
Broken Clouds Broken Clouds  
Wind Chill: 65°   Ceiling: 9000
Heat Index: 65°   Visibility: 10mi
Dew Point: 59°   Wind: 5mph
Humidity: 81%   Direction: 190°S
Pressure: 30.09"   Gusts: NA
Location:  34.9°N, 96.1°W
Report Text: KMLC 250753Z AUTO 19004KT 10SM SCT070 BKN090 18/15 A3009 RMK AO2 SLP182 T01830150
Loading
Personal Weather Stations






























Interactive Weather Map
Tropical Storm Tracking
New forecast layout! Learn more

10-Day Weather Forecast

Advertisements
Track Severe Weather on mobile